Time;durP1;ratioP1;P1;durP2;ratioP2;P2;SDS_P1;SDS_P2;PMS_P1;PMS_P2;Temp;Humidity;BMP_temperature;BMP_pressure;BME280_temperature;BME280_humidity;BME280_pressure;Samples;Min_cycle;Max_cycle;Signal;HPM_P1;HPM_P2
2023/05/23 00:00:41;;;;;;;;;;;15.20;99.90;;;;;;5083631;28;19928;-84
2023/05/23 00:03:07;;;;;;;;;;;15.20;99.90;;;;;;5064656;28;19928;-82
2023/05/23 00:05:33;;;;;;;;;;;15.20;99.90;;;;;;5080908;28;19977;-87
2023/05/23 00:07:59;;;;;;;;;;;15.20;99.90;;;;;;5083322;28;19953;-83
2023/05/23 00:10:25;;;;;;;;;;;15.20;99.90;;;;;;5080995;28;20355;-83
2023/05/23 00:12:51;;;;;;;;;;;15.20;99.90;;;;;;5113962;27;19927;-85
2023/05/23 00:15:16;;;;;;;;;;;15.20;99.90;;;;;;5081459;28;20389;-82
2023/05/23 00:17:43;;;;;;;;;;;15.10;99.90;;;;;;5066685;28;19928;-89
2023/05/23 00:20:10;;;;;;;;;;;15.00;99.90;;;;;;5083973;28;19985;-84
2023/05/23 00:22:41;;;;;;;;;;;15.10;99.90;;;;;;5079390;28;20189;-87
2023/05/23 00:25:08;;;;;;;;;;;15.10;99.90;;;;;;5067306;28;19932;-88
2023/05/23 00:27:34;;;;;;;;;;;15.10;99.90;;;;;;5080218;28;20423;-84
2023/05/23 00:30:00;;;;;;;;;;;15.00;99.90;;;;;;5081187;28;20381;-89
2023/05/23 00:32:25;;;;;;;;;;;15.00;99.90;;;;;;5080764;28;19928;-83
2023/05/23 00:34:52;;;;;;;;;;;15.00;99.90;;;;;;5081044;28;19928;-86
2023/05/23 00:37:19;;;;;;;;;;;15.00;99.90;;;;;;5080887;28;19924;-82
2023/05/23 00:39:44;;;;;;;;;;;15.00;99.90;;;;;;5080693;28;19932;-86
2023/05/23 00:42:10;;;;;;;;;;;14.90;99.90;;;;;;5082684;28;19989;-92
2023/05/23 00:44:35;;;;;;;;;;;15.00;99.90;;;;;;5082420;28;20007;-86
2023/05/23 00:47:01;;;;;;;;;;;14.90;99.90;;;;;;5080335;28;19928;-83
2023/05/23 00:49:27;;;;;;;;;;;15.00;99.90;;;;;;5065283;28;19924;-84
2023/05/23 00:51:52;;;;;;;;;;;14.90;99.90;;;;;;5115787;27;19928;-85
2023/05/23 00:54:22;;;;;;;;;;;14.70;99.90;;;;;;5080698;28;19928;-83
2023/05/23 00:56:48;;;;;;;;;;;14.90;99.90;;;;;;5081670;28;20813;-84
2023/05/23 00:59:14;;;;;;;;;;;15.00;99.90;;;;;;5080390;28;19932;-86
2023/05/23 01:01:40;;;;;;;;;;;14.90;99.90;;;;;;5113287;27;19928;-84
2023/05/23 01:04:06;;;;;;;;;;;14.80;99.90;;;;;;5079592;28;19928;-86
2023/05/23 01:06:32;;;;;;;;;;;14.90;99.90;;;;;;5076518;28;19932;-84
2023/05/23 01:09:01;;;;;;;;;;;14.90;99.90;;;;;;5079695;28;20170;-85
2023/05/23 01:11:41;;;;;;;;;;;14.80;99.90;;;;;;5081658;28;20440;-85
2023/05/23 01:14:09;;;;;;;;;;;14.80;99.90;;;;;;5109010;27;20018;-86
2023/05/23 01:16:38;;;;;;;;;;;14.80;99.90;;;;;;5062076;28;20418;-86
2023/05/23 01:19:04;;;;;;;;;;;14.80;99.90;;;;;;5081435;28;20381;-83
2023/05/23 01:21:31;;;;;;;;;;;14.80;99.90;;;;;;5082254;28;19935;-86
2023/05/23 01:24:14;;;;;;;;;;;14.80;99.90;;;;;;5081323;28;19932;-86
2023/05/23 01:26:47;;;;;;;;;;;14.70;99.90;;;;;;5080591;28;20652;-86
2023/05/23 01:29:16;;;;;;;;;;;14.80;99.90;;;;;;5112839;27;19932;-86
2023/05/23 01:31:43;;;;;;;;;;;14.80;99.90;;;;;;5079661;28;19935;-85
2023/05/23 01:34:09;;;;;;;;;;;14.60;99.90;;;;;;5080531;28;20436;-86
2023/05/23 01:36:38;;;;;;;;;;;14.70;99.90;;;;;;5080270;28;20005;-87
2023/05/23 01:39:05;;;;;;;;;;;14.70;99.90;;;;;;5066012;28;19939;-85
2023/05/23 01:41:30;;;;;;;;;;;14.70;99.90;;;;;;5081446;28;19929;-86
2023/05/23 01:43:56;;;;;;;;;;;14.60;99.90;;;;;;5063059;28;19935;-83
2023/05/23 01:46:22;;;;;;;;;;;14.70;99.90;;;;;;5080355;28;19928;-85
2023/05/23 01:48:48;;;;;;;;;;;14.70;99.90;;;;;;5080103;28;20308;-86
2023/05/23 01:51:14;;;;;;;;;;;14.70;99.90;;;;;;5079788;28;19940;-83
2023/05/23 01:53:40;;;;;;;;;;;14.70;99.90;;;;;;5064093;28;19928;-84
2023/05/23 01:56:06;;;;;;;;;;;14.60;99.90;;;;;;5078592;28;20317;-85
2023/05/23 01:58:31;;;;;;;;;;;14.60;99.90;;;;;;5113140;27;19935;-85
2023/05/23 02:00:57;;;;;;;;;;;14.50;99.90;;;;;;5079157;28;20034;-86
2023/05/23 02:03:23;;;;;;;;;;;14.60;99.90;;;;;;5081003;28;19924;-90
2023/05/23 02:05:48;;;;;;;;;;;14.50;99.90;;;;;;5080548;28;20470;-85
2023/05/23 02:08:14;;;;;;;;;;;14.60;99.90;;;;;;5079156;28;19953;-86
2023/05/23 02:10:39;;;;;;;;;;;14.50;99.90;;;;;;5079150;28;19928;-87
2023/05/23 02:13:05;;;;;;;;;;;14.50;99.90;;;;;;5078571;28;20578;-85
2023/05/23 02:15:30;;;;;;;;;;;14.50;99.90;;;;;;5112902;28;20031;-84
2023/05/23 02:17:56;;;;;;;;;;;14.50;99.90;;;;;;5114491;27;19928;-83
2023/05/23 02:20:22;;;;;;;;;;;14.40;99.90;;;;;;5064867;28;19932;-86
2023/05/23 02:22:47;;;;;;;;;;;14.30;99.90;;;;;;5064106;28;19939;-87
2023/05/23 02:25:14;;;;;;;;;;;14.40;99.90;;;;;;5079726;28;20005;-87
2023/05/23 02:27:40;;;;;;;;;;;14.40;99.90;;;;;;5078824;28;19932;-87
2023/05/23 02:30:05;;;;;;;;;;;14.30;99.90;;;;;;5078897;28;19939;-86
2023/05/23 02:32:31;;;;;;;;;;;14.40;99.90;;;;;;5062624;28;19936;-85
2023/05/23 02:34:57;;;;;;;;;;;14.40;99.90;;;;;;5078289;28;19947;-84
2023/05/23 02:37:22;;;;;;;;;;;14.30;99.90;;;;;;5077926;28;19985;-84
2023/05/23 02:39:48;;;;;;;;;;;14.30;99.90;;;;;;5081652;28;20434;-86
2023/05/23 02:42:13;;;;;;;;;;;14.30;99.90;;;;;;5082360;28;19932;-85
2023/05/23 02:44:39;;;;;;;;;;;14.20;99.90;;;;;;5081263;28;20339;-84
2023/05/23 02:47:04;;;;;;;;;;;14.30;99.90;;;;;;5081432;28;20301;-84
2023/05/23 02:49:30;;;;;;;;;;;14.30;99.90;;;;;;5082967;28;19939;-87
2023/05/23 02:51:55;;;;;;;;;;;14.30;99.90;;;;;;5080721;28;19924;-85
2023/05/23 02:54:21;;;;;;;;;;;14.30;99.90;;;;;;5081892;28;19932;-83
2023/05/23 02:56:46;;;;;;;;;;;14.20;99.90;;;;;;5081270;28;20301;-84
2023/05/23 02:59:12;;;;;;;;;;;14.20;99.90;;;;;;5080504;28;20311;-85
2023/05/23 03:01:38;;;;;;;;;;;14.20;99.90;;;;;;5078803;28;19963;-85
2023/05/23 03:04:03;;;;;;;;;;;14.20;99.90;;;;;;5095461;28;20282;-85
2023/05/23 03:06:32;;;;;;;;;;;14.10;99.90;;;;;;5080206;28;20323;-85
2023/05/23 03:08:58;;;;;;;;;;;14.10;99.90;;;;;;5063682;28;19939;-85
2023/05/23 03:11:28;;;;;;;;;;;14.10;99.90;;;;;;5084502;28;19934;-84
2023/05/23 03:13:54;;;;;;;;;;;14.10;99.90;;;;;;5080918;28;20426;-85
2023/05/23 03:16:20;;;;;;;;;;;14.00;99.90;;;;;;5085655;28;19924;-84
2023/05/23 03:18:46;;;;;;;;;;;13.90;99.90;;;;;;5084593;28;19932;-84
2023/05/23 03:21:11;;;;;;;;;;;13.90;99.90;;;;;;5085043;28;20450;-84
2023/05/23 03:23:37;;;;;;;;;;;13.90;99.90;;;;;;5083735;28;19932;-82
2023/05/23 03:26:02;;;;;;;;;;;13.90;99.90;;;;;;5084983;28;20033;-83
2023/05/23 03:28:31;;;;;;;;;;;13.80;99.90;;;;;;5084982;28;19970;-84
2023/05/23 03:30:57;;;;;;;;;;;13.90;99.90;;;;;;5083724;28;19924;-83
2023/05/23 03:33:23;;;;;;;;;;;13.70;99.90;;;;;;5082462;28;19932;-85
2023/05/23 03:35:49;;;;;;;;;;;13.70;99.90;;;;;;5080937;28;20502;-88
2023/05/23 03:38:15;;;;;;;;;;;13.70;99.90;;;;;;5084985;28;19924;-84
2023/05/23 03:40:40;;;;;;;;;;;13.70;99.90;;;;;;5118955;27;19931;-87
2023/05/23 03:43:07;;;;;;;;;;;13.60;99.90;;;;;;5067426;28;21413;-83
2023/05/23 03:45:32;;;;;;;;;;;13.70;99.90;;;;;;5085482;28;19932;-85
2023/05/23 03:47:58;;;;;;;;;;;13.70;99.90;;;;;;5083965;28;19974;-85
2023/05/23 03:50:24;;;;;;;;;;;13.70;99.90;;;;;;5085451;28;19974;-84
2023/05/23 03:52:49;;;;;;;;;;;13.60;99.90;;;;;;5117064;27;20288;-85
2023/05/23 03:55:15;;;;;;;;;;;13.70;99.90;;;;;;5101504;28;20270;-85
2023/05/23 03:57:40;;;;;;;;;;;13.70;99.90;;;;;;5081407;28;20026;-85
2023/05/23 04:00:11;;;;;;;;;;;13.70;99.90;;;;;;5082190;28;19978;-87
2023/05/23 04:02:39;;;;;;;;;;;13.70;99.90;;;;;;5083988;28;19928;-86
2023/05/23 04:05:05;;;;;;;;;;;13.50;99.90;;;;;;5084829;28;20454;-84
2023/05/23 04:07:33;;;;;;;;;;;13.40;99.90;;;;;;5083437;28;20373;-82
2023/05/23 04:09:59;;;;;;;;;;;13.40;99.90;;;;;;5081063;28;19928;-83
2023/05/23 04:12:25;;;;;;;;;;;13.30;99.90;;;;;;5110480;27;19932;-86
2023/05/23 04:14:51;;;;;;;;;;;13.50;99.90;;;;;;5081941;28;20022;-86
2023/05/23 04:17:17;;;;;;;;;;;13.40;99.90;;;;;;5067048;28;19925;-88
2023/05/23 04:19:43;;;;;;;;;;;13.40;99.90;;;;;;5084771;28;20600;-86
2023/05/23 04:22:08;;;;;;;;;;;13.40;99.90;;;;;;5082653;28;19924;-88
2023/05/23 04:24:34;;;;;;;;;;;13.20;99.90;;;;;;5082007;28;19956;-83
2023/05/23 04:27:00;;;;;;;;;;;13.30;99.90;;;;;;5082651;28;19963;-83
2023/05/23 04:29:26;;;;;;;;;;;13.30;99.90;;;;;;5065404;28;19932;-83
2023/05/23 04:31:53;;;;;;;;;;;13.30;99.90;;;;;;5113809;27;19932;-83
2023/05/23 04:34:21;;;;;;;;;;;13.20;99.90;;;;;;5111425;27;20011;-83
2023/05/23 04:36:47;;;;;;;;;;;13.10;99.90;;;;;;5064927;28;19939;-83
2023/05/23 04:39:12;;;;;;;;;;;13.10;99.90;;;;;;5067101;28;19928;-85
2023/05/23 04:41:38;;;;;;;;;;;13.10;99.90;;;;;;5080653;28;19928;-84
2023/05/23 04:44:04;;;;;;;;;;;13.20;99.90;;;;;;5081373;28;19993;-84
2023/05/23 04:46:30;;;;;;;;;;;13.20;99.90;;;;;;5060931;28;19928;-85
2023/05/23 04:48:57;;;;;;;;;;;13.00;99.90;;;;;;5079546;28;19924;-82
2023/05/23 04:51:23;;;;;;;;;;;13.00;99.90;;;;;;5080457;28;19928;-83
2023/05/23 04:53:49;;;;;;;;;;;13.20;99.90;;;;;;5064738;28;19932;-86
2023/05/23 04:56:16;;;;;;;;;;;13.00;99.90;;;;;;5079238;28;20428;-82
2023/05/23 04:58:44;;;;;;;;;;;13.10;99.90;;;;;;5082253;28;20422;-84
2023/05/23 05:01:10;;;;;;;;;;;13.20;99.90;;;;;;5079933;28;19928;-83
2023/05/23 05:03:36;;;;;;;;;;;13.10;99.90;;;;;;5077918;28;19947;-82
2023/05/23 05:06:01;;;;;;;;;;;13.10;99.90;;;;;;5078785;28;20587;-83
2023/05/23 05:08:27;;;;;;;;;;;13.10;99.90;;;;;;5080661;28;19963;-85
2023/05/23 05:10:53;;;;;;;;;;;13.00;99.90;;;;;;5079794;28;19932;-83
2023/05/23 05:13:18;;;;;;;;;;;13.00;99.90;;;;;;5078806;28;19932;-86
2023/05/23 05:15:44;;;;;;;;;;;13.00;99.90;;;;;;5081184;28;19935;-82
2023/05/23 05:18:10;;;;;;;;;;;13.00;99.90;;;;;;5083427;28;20015;-84
2023/05/23 05:20:36;;;;;;;;;;;13.00;99.90;;;;;;5079989;28;19928;-84
2023/05/23 05:23:02;;;;;;;;;;;12.90;99.90;;;;;;5115517;27;19924;-81
2023/05/23 05:25:30;;;;;;;;;;;12.90;99.90;;;;;;5081597;28;20022;-85
2023/05/23 05:28:01;;;;;;;;;;;12.90;99.90;;;;;;5080438;28;19931;-82
2023/05/23 05:30:27;;;;;;;;;;;12.90;99.90;;;;;;5079997;28;19982;-83
2023/05/23 05:32:53;;;;;;;;;;;13.00;99.90;;;;;;5083232;28;20010;-88
2023/05/23 05:35:18;;;;;;;;;;;12.90;99.90;;;;;;5082338;28;20025;-82
2023/05/23 05:37:47;;;;;;;;;;;12.80;99.90;;;;;;5084596;28;19928;-87
2023/05/23 05:40:12;;;;;;;;;;;12.90;99.90;;;;;;5080657;28;19928;-88
2023/05/23 05:42:38;;;;;;;;;;;12.90;99.90;;;;;;5066689;28;19928;-86
2023/05/23 05:45:04;;;;;;;;;;;12.70;99.90;;;;;;5082633;28;19932;-86
2023/05/23 05:47:29;;;;;;;;;;;12.90;99.90;;;;;;5109050;27;20442;-83
2023/05/23 05:49:55;;;;;;;;;;;12.90;99.90;;;;;;5079574;28;19935;-82
2023/05/23 05:52:20;;;;;;;;;;;12.90;99.90;;;;;;5079956;28;20592;-82
2023/05/23 05:54:46;;;;;;;;;;;13.00;99.90;;;;;;5077151;28;20043;-84
2023/05/23 05:57:11;;;;;;;;;;;12.90;99.90;;;;;;5078794;28;19960;-81
2023/05/23 05:59:37;;;;;;;;;;;12.90;99.90;;;;;;5081720;28;19935;-82
2023/05/23 06:02:02;;;;;;;;;;;12.90;99.90;;;;;;5077000;28;19933;-84
2023/05/23 06:04:28;;;;;;;;;;;12.90;99.90;;;;;;5108897;27;19928;-83
2023/05/23 06:06:53;;;;;;;;;;;12.80;99.90;;;;;;5112041;27;19928;-85
2023/05/23 06:09:19;;;;;;;;;;;12.70;99.90;;;;;;5079816;28;20024;-81
2023/05/23 06:11:45;;;;;;;;;;;12.80;99.90;;;;;;5078979;28;20305;-85
2023/05/23 06:14:11;;;;;;;;;;;12.70;99.90;;;;;;5082222;28;20373;-82
2023/05/23 06:16:36;;;;;;;;;;;12.70;99.90;;;;;;5110577;27;19928;-84
2023/05/23 06:19:02;;;;;;;;;;;12.60;99.90;;;;;;5082076;28;20009;-83
2023/05/23 06:21:27;;;;;;;;;;;12.60;99.90;;;;;;5081740;28;19928;-86
2023/05/23 06:23:53;;;;;;;;;;;12.50;99.90;;;;;;5081435;28;19996;-86
2023/05/23 06:26:18;;;;;;;;;;;12.60;99.90;;;;;;5112634;28;20404;-89
2023/05/23 06:28:44;;;;;;;;;;;12.40;99.90;;;;;;5065756;28;19932;-84
2023/05/23 06:31:10;;;;;;;;;;;12.50;99.90;;;;;;5111177;28;19963;-82
2023/05/23 06:33:35;;;;;;;;;;;12.50;99.90;;;;;;5081791;28;19939;-84
2023/05/23 06:36:01;;;;;;;;;;;12.40;99.90;;;;;;5082061;28;19928;-84
2023/05/23 06:38:28;;;;;;;;;;;12.40;99.90;;;;;;5079721;28;19924;-83
2023/05/23 06:40:54;;;;;;;;;;;12.40;99.90;;;;;;5081193;28;20256;-84
2023/05/23 06:43:19;;;;;;;;;;;12.20;99.90;;;;;;5082483;28;20022;-82
2023/05/23 06:45:46;;;;;;;;;;;12.10;99.90;;;;;;5084628;28;19924;-84
2023/05/23 06:48:12;;;;;;;;;;;12.20;99.90;;;;;;5083242;28;19939;-82
2023/05/23 06:50:37;;;;;;;;;;;12.30;99.90;;;;;;5087931;28;19982;-85
2023/05/23 06:53:03;;;;;;;;;;;12.10;99.90;;;;;;5086675;28;19969;-82
2023/05/23 06:55:29;;;;;;;;;;;12.20;99.90;;;;;;5103619;28;19986;-88
2023/05/23 06:57:54;;;;;;;;;;;12.20;99.90;;;;;;5085773;28;20479;-85
2023/05/23 07:00:20;;;;;;;;;;;12.20;99.90;;;;;;5086787;28;19935;-85
2023/05/23 07:02:49;;;;;;;;;;;12.20;99.90;;;;;;5083813;28;19936;-84
2023/05/23 07:05:16;;;;;;;;;;;12.30;99.90;;;;;;5085203;28;19936;-86
2023/05/23 07:07:42;;;;;;;;;;;12.30;99.90;;;;;;5086678;28;19965;-87
2023/05/23 07:10:08;;;;;;;;;;;12.30;99.90;;;;;;5085618;28;19923;-81
2023/05/23 07:12:34;;;;;;;;;;;12.40;99.90;;;;;;5087993;28;20126;-82
2023/05/23 07:14:59;;;;;;;;;;;12.40;99.90;;;;;;5069207;28;19928;-85
2023/05/23 07:17:25;;;;;;;;;;;12.50;99.90;;;;;;5087085;28;19924;-86
2023/05/23 07:19:50;;;;;;;;;;;12.30;99.90;;;;;;5086278;28;19935;-82
2023/05/23 07:22:16;;;;;;;;;;;12.30;99.90;;;;;;5085971;28;19935;-85
2023/05/23 07:24:41;;;;;;;;;;;12.30;99.90;;;;;;5068522;28;19974;-83
2023/05/23 07:27:07;;;;;;;;;;;12.50;99.90;;;;;;5086852;28;19928;-84
2023/05/23 07:29:33;;;;;;;;;;;12.50;99.90;;;;;;5087599;28;19934;-85
2023/05/23 07:31:58;;;;;;;;;;;12.70;99.90;;;;;;5086770;28;20019;-86
2023/05/23 07:34:25;;;;;;;;;;;12.70;99.90;;;;;;5087042;28;19932;-86
2023/05/23 07:36:51;;;;;;;;;;;12.80;99.90;;;;;;5086480;28;19928;-84
2023/05/23 07:39:20;;;;;;;;;;;12.90;99.90;;;;;;5087457;28;19934;-85
2023/05/23 07:41:46;;;;;;;;;;;13.00;99.90;;;;;;5086141;28;20381;-86
2023/05/23 07:44:12;;;;;;;;;;;13.00;99.90;;;;;;5069781;28;19928;-84
2023/05/23 07:46:37;;;;;;;;;;;12.90;99.90;;;;;;5086235;28;19973;-82
2023/05/23 07:49:03;;;;;;;;;;;12.70;99.90;;;;;;5087167;28;19924;-83
2023/05/23 07:51:29;;;;;;;;;;;12.80;99.90;;;;;;5085894;28;19977;-86
2023/05/23 07:53:55;;;;;;;;;;;12.80;99.90;;;;;;5086609;28;20579;-83
2023/05/23 07:56:20;;;;;;;;;;;12.80;99.90;;;;;;5086187;28;19928;-84
2023/05/23 07:58:46;;;;;;;;;;;12.70;99.90;;;;;;5084937;28;19928;-83
2023/05/23 08:01:11;;;;;;;;;;;12.60;99.90;;;;;;5086583;28;19935;-88
2023/05/23 08:03:37;;;;;;;;;;;12.60;99.90;;;;;;5082026;28;19932;-85
2023/05/23 08:06:03;;;;;;;;;;;12.70;99.90;;;;;;5082512;28;19981;-84
2023/05/23 08:08:28;;;;;;;;;;;12.90;99.90;;;;;;5076788;28;19939;-87
2023/05/23 08:10:54;;;;;;;;;;;13.30;99.90;;;;;;5083761;28;19935;-88
2023/05/23 08:13:19;;;;;;;;;;;13.20;99.90;;;;;;5087475;28;19949;-85
2023/05/23 08:15:45;;;;;;;;;;;13.00;99.90;;;;;;5085040;28;20380;-85
2023/05/23 08:18:11;;;;;;;;;;;13.00;99.90;;;;;;5086697;28;19934;-87
2023/05/23 08:20:36;;;;;;;;;;;13.00;99.90;;;;;;5086346;28;19924;-85
2023/05/23 08:23:02;;;;;;;;;;;13.00;99.90;;;;;;5083889;28;20520;-86
2023/05/23 08:25:31;;;;;;;;;;;12.90;99.90;;;;;;5085087;28;19950;-84
2023/05/23 08:28:00;;;;;;;;;;;12.90;99.90;;;;;;5085458;28;19925;-83
2023/05/23 08:30:26;;;;;;;;;;;12.90;99.90;;;;;;5085550;28;20022;-86
2023/05/23 08:32:52;;;;;;;;;;;13.10;99.90;;;;;;5069382;28;19966;-84
2023/05/23 08:35:18;;;;;;;;;;;13.00;99.90;;;;;;5085299;28;19924;-84
2023/05/23 08:37:46;;;;;;;;;;;13.10;99.90;;;;;;5084738;28;19928;-88
2023/05/23 08:40:21;;;;;;;;;;;13.20;99.90;;;;;;5085797;28;19935;-83
2023/05/23 08:42:48;;;;;;;;;;;13.00;99.90;;;;;;5084503;28;19992;-86
2023/05/23 08:45:14;;;;;;;;;;;13.10;99.90;;;;;;5119969;27;19950;-84
2023/05/23 08:47:41;;;;;;;;;;;13.10;99.90;;;;;;5066503;28;19932;-84
2023/05/23 08:50:16;;;;;;;;;;;13.10;99.90;;;;;;5120169;27;20346;-92
2023/05/23 08:52:44;;;;;;;;;;;13.00;99.90;;;;;;5084220;28;19928;-84
2023/05/23 08:55:10;;;;;;;;;;;13.10;99.90;;;;;;5102024;28;19935;-88
2023/05/23 08:57:37;;;;;;;;;;;13.30;99.90;;;;;;5083207;28;19943;-83
2023/05/23 09:00:09;;;;;;;;;;;13.40;99.90;;;;;;5084538;28;19957;-85
2023/05/23 09:02:34;;;;;;;;;;;13.50;99.90;;;;;;5067715;28;19955;-89
2023/05/23 09:05:00;;;;;;;;;;;13.50;99.90;;;;;;5085905;28;19935;-84
2023/05/23 09:07:27;;;;;;;;;;;13.50;99.90;;;;;;5084177;28;19974;-83
2023/05/23 09:09:53;;;;;;;;;;;13.90;99.90;;;;;;5084517;28;19963;-85
2023/05/23 09:12:21;;;;;;;;;;;14.10;99.90;;;;;;5082563;28;20013;-83
2023/05/23 09:14:47;;;;;;;;;;;14.70;99.90;;;;;;5084519;28;19978;-83
2023/05/23 09:17:18;;;;;;;;;;;14.70;99.90;;;;;;5097811;28;19959;-84
2023/05/23 09:19:46;;;;;;;;;;;14.00;99.90;;;;;;5082938;28;20647;-83
2023/05/23 09:22:11;;;;;;;;;;;14.20;99.90;;;;;;5085932;28;20003;-83
2023/05/23 09:24:37;;;;;;;;;;;14.20;99.90;;;;;;5082453;28;20494;-83
2023/05/23 09:27:06;;;;;;;;;;;14.50;99.90;;;;;;5082100;28;20027;-88
2023/05/23 09:29:35;;;;;;;;;;;14.60;99.90;;;;;;5084426;28;19928;-85
2023/05/23 09:32:11;;;;;;;;;;;14.70;99.90;;;;;;5082690;28;19943;-88
2023/05/23 09:34:49;;;;;;;;;;;14.80;99.90;;;;;;5083506;28;19928;-87
2023/05/23 09:37:17;;;;;;;;;;;15.00;99.90;;;;;;5096848;28;19932;-84
2023/05/23 09:39:47;;;;;;;;;;;15.70;99.90;;;;;;5067435;28;20440;-85
2023/05/23 09:42:18;;;;;;;;;;;15.80;99.90;;;;;;5115170;27;19935;-84
2023/05/23 09:44:44;;;;;;;;;;;15.60;99.90;;;;;;5066743;28;19927;-84
2023/05/23 09:47:09;;;;;;;;;;;15.60;99.90;;;;;;5081457;28;20574;-86
2023/05/23 09:49:37;;;;;;;;;;;15.60;99.90;;;;;;5083782;28;19974;-88
2023/05/23 09:52:03;;;;;;;;;;;15.70;99.90;;;;;;5085822;28;19930;-90
2023/05/23 09:54:28;;;;;;;;;;;15.60;99.90;;;;;;5085252;28;19927;-89
2023/05/23 09:56:55;;;;;;;;;;;15.40;99.90;;;;;;5067686;28;20035;-91
2023/05/23 09:59:23;;;;;;;;;;;15.70;99.90;;;;;;5085794;28;19975;-83
2023/05/23 10:01:50;;;;;;;;;;;15.40;99.90;;;;;;5084136;28;19982;-85
2023/05/23 10:04:20;;;;;;;;;;;16.40;99.90;;;;;;5067328;28;20510;-86
2023/05/23 10:06:52;;;;;;;;;;;15.80;99.90;;;;;;5065455;28;19928;-81
2023/05/23 10:09:19;;;;;;;;;;;15.70;99.90;;;;;;5065549;28;19977;-85
2023/05/23 10:12:05;;;;;;;;;;;16.30;99.90;;;;;;5083843;28;20126;-86
2023/05/23 10:14:34;;;;;;;;;;;15.90;99.90;;;;;;5072326;28;19925;-83
2023/05/23 10:17:02;;;;;;;;;;;15.50;99.90;;;;;;5081205;28;20013;-82
2023/05/23 10:19:34;;;;;;;;;;;16.50;99.90;;;;;;5082727;28;20404;-85
2023/05/23 10:22:02;;;;;;;;;;;16.30;99.90;;;;;;5102169;28;19924;-87
2023/05/23 10:24:28;;;;;;;;;;;16.20;99.90;;;;;;5089537;28;19930;-85
2023/05/23 10:26:57;;;;;;;;;;;16.30;99.90;;;;;;5082273;28;19925;-83
2023/05/23 10:29:23;;;;;;;;;;;16.10;99.90;;;;;;5086816;28;19928;-89
2023/05/23 10:31:50;;;;;;;;;;;15.50;99.90;;;;;;5088506;28;20464;-87
2023/05/23 10:34:34;;;;;;;;;;;16.30;99.90;;;;;;5087389;28;19928;-87
2023/05/23 10:37:04;;;;;;;;;;;16.30;99.90;;;;;;5086652;28;19928;-83
2023/05/23 10:39:43;;;;;;;;;;;16.50;99.90;;;;;;5070750;28;20404;-90
2023/05/23 10:42:16;;;;;;;;;;;16.50;99.90;;;;;;5086988;28;19928;-83
2023/05/23 10:44:41;;;;;;;;;;;16.70;99.90;;;;;;5086932;28;20286;-83
2023/05/23 10:47:07;;;;;;;;;;;17.80;99.90;;;;;;5087085;28;19928;-89
2023/05/23 10:49:37;;;;;;;;;;;17.90;99.90;;;;;;5086382;28;19992;-89
2023/05/23 10:52:02;;;;;;;;;;;16.80;99.90;;;;;;5089022;28;19924;-87
2023/05/23 10:54:34;;;;;;;;;;;16.30;99.90;;;;;;5088113;28;20606;-82
2023/05/23 10:57:03;;;;;;;;;;;16.00;99.90;;;;;;5069394;28;19974;-87
2023/05/23 10:59:29;;;;;;;;;;;16.00;99.90;;;;;;5088130;28;19924;-85
2023/05/23 11:01:54;;;;;;;;;;;16.10;99.90;;;;;;5070645;28;20618;-82
2023/05/23 11:04:27;;;;;;;;;;;15.70;99.90;;;;;;5119705;27;19928;-90
2023/05/23 11:06:55;;;;;;;;;;;15.60;99.90;;;;;;5084369;28;19928;-83
2023/05/23 11:09:22;;;;;;;;;;;16.00;99.90;;;;;;5087257;28;19924;-84
2023/05/23 11:12:04;;;;;;;;;;;16.00;99.90;;;;;;5086950;28;20378;-86
2023/05/23 11:14:31;;;;;;;;;;;16.60;99.90;;;;;;5069892;28;19974;-82
2023/05/23 11:16:57;;;;;;;;;;;16.50;99.90;;;;;;5067698;28;19928;-84
2023/05/23 11:19:24;;;;;;;;;;;16.70;99.90;;;;;;5071403;28;20357;-84
2023/05/23 11:21:56;;;;;;;;;;;17.10;99.90;;;;;;5083869;28;19986;-84
2023/05/23 11:24:43;;;;;;;;;;;16.80;99.90;;;;;;5086200;28;20043;-85
2023/05/23 11:27:10;;;;;;;;;;;16.80;99.90;;;;;;5083545;28;19924;-84
2023/05/23 11:29:36;;;;;;;;;;;16.10;99.90;;;;;;5085287;28;19925;-88
2023/05/23 11:32:08;;;;;;;;;;;16.10;99.90;;;;;;5066657;28;19955;-82
2023/05/23 11:34:34;;;;;;;;;;;15.60;99.90;;;;;;5086085;28;19981;-85
2023/05/23 11:36:59;;;;;;;;;;;16.30;99.90;;;;;;5085333;28;19967;-84
2023/05/23 11:39:25;;;;;;;;;;;16.60;99.90;;;;;;5085868;28;19928;-83
2023/05/23 11:42:01;;;;;;;;;;;17.00;99.90;;;;;;5078967;28;20010;-84
2023/05/23 11:44:27;;;;;;;;;;;16.50;99.90;;;;;;5118201;27;19932;-89
2023/05/23 11:47:03;;;;;;;;;;;16.30;99.90;;;;;;5082701;28;19935;-84
2023/05/23 11:49:34;;;;;;;;;;;16.20;99.90;;;;;;5083973;28;19933;-85
2023/05/23 11:52:03;;;;;;;;;;;17.00;99.90;;;;;;5069308;28;19950;-84
2023/05/23 11:54:29;;;;;;;;;;;17.30;99.90;;;;;;5064992;28;20381;-83
2023/05/23 11:56:54;;;;;;;;;;;17.10;99.90;;;;;;5082963;28;20027;-84
2023/05/23 11:59:24;;;;;;;;;;;16.90;99.90;;;;;;5084015;28;20035;-85
2023/05/23 12:01:50;;;;;;;;;;;16.30;99.90;;;;;;5082352;28;20304;-87
2023/05/23 12:04:16;;;;;;;;;;;16.20;99.90;;;;;;5080889;28;19933;-84
2023/05/23 12:06:47;;;;;;;;;;;16.50;99.90;;;;;;5065450;28;19932;-87
2023/05/23 12:09:13;;;;;;;;;;;17.30;99.90;;;;;;5084128;28;19932;-84
2023/05/23 12:11:39;;;;;;;;;;;16.70;99.90;;;;;;5084178;28;19925;-84
2023/05/23 12:14:05;;;;;;;;;;;17.00;99.90;;;;;;5083267;28;19932;-83
2023/05/23 12:16:35;;;;;;;;;;;16.30;99.90;;;;;;5083531;28;19981;-87
2023/05/23 12:19:01;;;;;;;;;;;16.40;99.90;;;;;;5068651;28;19939;-87
2023/05/23 12:21:39;;;;;;;;;;;17.20;99.90;;;;;;5087527;28;20331;-84
2023/05/23 12:24:31;;;;;;;;;;;16.70;99.90;;;;;;5084966;28;19928;-85
2023/05/23 12:26:57;;;;;;;;;;;16.00;99.90;;;;;;5080314;28;19964;-89
2023/05/23 12:29:29;;;;;;;;;;;15.90;99.90;;;;;;5081543;28;19928;-81
2023/05/23 12:31:56;;;;;;;;;;;16.80;99.90;;;;;;5085908;28;19928;-83
2023/05/23 12:34:22;;;;;;;;;;;17.10;99.90;;;;;;5084703;28;19939;-82
2023/05/23 12:36:48;;;;;;;;;;;17.90;99.90;;;;;;5083816;28;19924;-83
2023/05/23 12:39:14;;;;;;;;;;;17.40;99.90;;;;;;5087263;28;19932;-84
2023/05/23 12:41:44;;;;;;;;;;;16.90;99.90;;;;;;5084260;28;19934;-84
2023/05/23 12:44:10;;;;;;;;;;;16.60;99.90;;;;;;5084723;28;20094;-84
2023/05/23 12:46:36;;;;;;;;;;;17.20;99.90;;;;;;5085694;28;20036;-86
2023/05/23 12:49:02;;;;;;;;;;;16.10;99.90;;;;;;5083459;28;20432;-82
2023/05/23 12:51:27;;;;;;;;;;;16.50;99.90;;;;;;5083522;28;19983;-82
2023/05/23 12:53:56;;;;;;;;;;;17.20;99.90;;;;;;5085985;28;20380;-86
2023/05/23 12:56:21;;;;;;;;;;;16.80;99.90;;;;;;5117215;27;20057;-84
2023/05/23 12:58:47;;;;;;;;;;;16.20;99.90;;;;;;5084860;28;20003;-84
2023/05/23 13:01:13;;;;;;;;;;;16.80;99.90;;;;;;5082740;28;20013;-88
2023/05/23 13:03:38;;;;;;;;;;;16.70;99.90;;;;;;5082117;28;19981;-84
2023/05/23 13:06:04;;;;;;;;;;;16.70;99.90;;;;;;5081600;28;19932;-82
2023/05/23 13:08:30;;;;;;;;;;;16.80;99.90;;;;;;5085623;28;19928;-91
2023/05/23 13:10:55;;;;;;;;;;;17.10;99.90;;;;;;5100185;28;19935;-83
2023/05/23 13:13:21;;;;;;;;;;;16.50;99.90;;;;;;5083939;28;19924;-82
2023/05/23 13:15:47;;;;;;;;;;;16.20;99.90;;;;;;5082972;28;19939;-85
2023/05/23 13:18:13;;;;;;;;;;;15.80;99.90;;;;;;5082319;28;19959;-84
2023/05/23 13:20:38;;;;;;;;;;;16.00;99.90;;;;;;5084185;28;19935;-82
2023/05/23 13:23:04;;;;;;;;;;;17.00;99.90;;;;;;5080991;28;20088;-85
2023/05/23 13:25:30;;;;;;;;;;;16.80;99.90;;;;;;5111878;27;19928;-84
2023/05/23 13:27:56;;;;;;;;;;;16.40;99.90;;;;;;5082392;28;20281;-83
2023/05/23 13:30:22;;;;;;;;;;;16.30;99.90;;;;;;5078489;28;20616;-83
2023/05/23 13:32:48;;;;;;;;;;;16.30;99.90;;;;;;5082999;28;19936;-88
2023/05/23 13:35:14;;;;;;;;;;;15.40;99.90;;;;;;5080559;28;19932;-82
2023/05/23 13:37:40;;;;;;;;;;;16.20;99.90;;;;;;5081348;28;20018;-84
2023/05/23 13:40:06;;;;;;;;;;;17.10;99.90;;;;;;5081401;28;19928;-84
2023/05/23 13:42:31;;;;;;;;;;;16.90;99.90;;;;;;5082190;28;19924;-87
2023/05/23 13:44:57;;;;;;;;;;;16.00;99.90;;;;;;5082478;28;20019;-83
2023/05/23 13:47:22;;;;;;;;;;;16.20;99.90;;;;;;5080134;28;20050;-85
2023/05/23 13:49:48;;;;;;;;;;;17.30;99.90;;;;;;5080969;28;19928;-84
2023/05/23 13:52:13;;;;;;;;;;;18.00;99.90;;;;;;5083108;28;19950;-83
2023/05/23 13:54:40;;;;;;;;;;;18.90;99.90;;;;;;5081973;28;19928;-84
2023/05/23 13:57:06;;;;;;;;;;;18.60;99.90;;;;;;5063987;28;19924;-84
2023/05/23 13:59:32;;;;;;;;;;;18.10;99.90;;;;;;5080224;28;19928;-91
2023/05/23 14:01:57;;;;;;;;;;;18.20;99.90;;;;;;5063522;28;19935;-85
2023/05/23 14:04:25;;;;;;;;;;;17.80;99.90;;;;;;5079590;28;20164;-84
2023/05/23 14:06:50;;;;;;;;;;;18.40;99.90;;;;;;5081056;28;19971;-83
2023/05/23 14:09:16;;;;;;;;;;;18.60;99.90;;;;;;5075317;28;19934;-83
2023/05/23 14:11:42;;;;;;;;;;;19.00;99.90;;;;;;5076486;28;20336;-84
2023/05/23 14:14:08;;;;;;;;;;;18.60;99.90;;;;;;5080334;28;20622;-84